createdAt,value
2022-12-13T00:02:26.550Z,16.92
2022-12-13T00:07:31.675Z,21.35
2022-12-13T00:12:35.335Z,15.95
2022-12-13T00:17:39.043Z,20.98
2022-12-13T00:22:44.080Z,21.42
2022-12-13T00:27:47.761Z,22.08
2022-12-13T00:32:51.500Z,23.63
2022-12-13T00:37:56.565Z,19.90
2022-12-13T00:43:00.362Z,22.60
2022-12-13T00:48:04.095Z,19.38
2022-12-13T00:53:09.113Z,15.55
2022-12-13T00:58:12.806Z,19.40
2022-12-13T01:03:25.583Z,18.70
2022-12-13T01:08:31.823Z,18.95
2022-12-13T01:13:35.955Z,15.38
2022-12-13T01:18:39.987Z,23.63
2022-12-13T01:23:45.827Z,20.77
2022-12-13T01:28:50.420Z,23.03
2022-12-13T01:33:54.104Z,20.02
2022-12-13T01:38:59.529Z,18.30
2022-12-13T01:44:05.124Z,17.55
2022-12-13T01:49:19.157Z,19.80
2022-12-13T01:54:33.231Z,20.73
2022-12-13T01:59:41.033Z,20.15
2022-12-13T02:04:52.268Z,17.30
2022-12-13T02:10:01.235Z,21.40
2022-12-13T02:15:11.659Z,20.50
2022-12-13T02:20:44.383Z,23.95
2022-12-13T02:26:17.347Z,20.25
2022-12-13T02:31:30.890Z,22.20
2022-12-13T02:36:40.888Z,19.83
2022-12-13T02:41:49.667Z,22.90
2022-12-13T02:46:57.722Z,28.23
2022-12-13T02:52:02.468Z,18.92
2022-12-13T02:57:06.248Z,21.05
2022-12-13T03:02:30.870Z,19.95
2022-12-13T03:07:46.045Z,26.35
2022-12-13T03:13:15.225Z,15.30
2022-12-13T03:18:23.169Z,18.42
2022-12-13T03:23:28.944Z,28.52
2022-12-13T03:28:32.763Z,21.60
2022-12-13T03:33:38.827Z,20.10
2022-12-13T03:38:42.816Z,27.27
2022-12-13T03:43:47.031Z,23.77
2022-12-13T03:48:52.036Z,22.77
2022-12-13T03:53:55.793Z,26.13
2022-12-13T03:58:59.615Z,24.70
2022-12-13T04:04:04.903Z,18.95
2022-12-13T04:09:08.631Z,21.92
2022-12-13T04:14:22.814Z,23.42
2022-12-13T04:19:28.153Z,24.30
2022-12-13T04:24:32.400Z,21.27
2022-12-13T04:29:36.229Z,20.85
2022-12-13T04:34:41.268Z,20.15
2022-12-13T04:39:47.863Z,22.67
2022-12-13T04:44:52.200Z,24.35
2022-12-13T04:49:57.209Z,17.50
2022-12-13T04:55:00.920Z,16.05
2022-12-13T05:00:06.040Z,20.33
2022-12-13T05:05:12.866Z,22.40
2022-12-13T05:10:37.448Z,24.48
2022-12-13T05:15:40.751Z,20.30
2022-12-13T05:20:45.785Z,19.23
2022-12-13T05:25:49.827Z,21.20
2022-12-13T05:30:54.078Z,25.25
2022-12-13T05:36:02.079Z,21.08
2022-12-13T05:41:06.585Z,19.75
2022-12-13T05:46:10.322Z,21.02
2022-12-13T05:51:15.499Z,25.85
2022-12-13T05:56:22.716Z,25.40
2022-12-13T06:01:27.132Z,23.10
2022-12-13T06:06:32.524Z,21.40
2022-12-13T06:11:36.347Z,26.60
2022-12-13T06:16:47.444Z,22.48
2022-12-13T06:21:54.545Z,16.33
2022-12-13T06:27:00.116Z,20.98
2022-12-13T06:32:04.855Z,20.77
2022-12-13T06:37:13.543Z,16.38
2022-12-13T06:42:21.444Z,20.85
2022-12-13T06:47:31.168Z,19.08
2022-12-13T06:52:37.885Z,28.42
2022-12-13T06:57:41.787Z,24.45
2022-12-13T07:02:45.733Z,20.17
2022-12-13T07:07:51.978Z,23.20
2022-12-13T07:12:56.920Z,23.55
2022-12-13T07:18:03.120Z,24.95
2022-12-13T07:23:11.242Z,25.98
2022-12-13T07:28:20.698Z,27.20
2022-12-13T07:33:29.787Z,23.85
2022-12-13T07:38:36.572Z,25.40
2022-12-13T07:43:41.856Z,22.80
2022-12-13T07:49:03.566Z,25.58
2022-12-13T07:54:08.850Z,27.52
2022-12-13T07:59:12.673Z,26.40
2022-12-13T08:04:16.464Z,25.50
2022-12-13T08:09:21.949Z,19.80
2022-12-13T08:14:25.742Z,23.63
2022-12-13T08:19:29.449Z,30.77
2022-12-13T08:24:36.360Z,21.60
2022-12-13T08:29:40.122Z,24.70
2022-12-13T08:34:45.606Z,31.25
2022-12-13T08:39:51.001Z,29.50
2022-12-13T08:44:55.472Z,26.85
2022-12-13T08:50:01.900Z,33.40
2022-12-13T08:55:10.487Z,26.23
2022-12-13T09:00:21.275Z,30.83
2022-12-13T09:05:34.130Z,35.28
2022-12-13T09:10:40.050Z,33.25
2022-12-13T09:15:45.779Z,32.45
2022-12-13T09:20:50.325Z,26.88
2022-12-13T09:26:05.705Z,28.15
2022-12-13T09:31:11.020Z,39.00
2022-12-13T09:36:17.104Z,30.85
2022-12-13T09:41:28.904Z,25.27
2022-12-13T09:46:44.296Z,29.80
2022-12-13T09:52:10.094Z,37.43
2022-12-13T09:57:32.283Z,43.30
2022-12-13T10:02:45.296Z,30.08
2022-12-13T10:07:49.707Z,39.25
2022-12-13T10:12:59.854Z,36.15
2022-12-13T10:18:05.320Z,32.72
2022-12-13T10:23:52.580Z,37.22
2022-12-13T10:28:35.023Z,26.85
2022-12-13T10:33:41.868Z,24.27
2022-12-13T10:44:17.311Z,30.67
2022-12-13T10:49:23.841Z,25.77
2022-12-13T10:54:38.799Z,31.90
2022-12-13T10:59:54.054Z,24.33
2022-12-13T11:04:58.653Z,29.48
2022-12-13T11:10:27.365Z,25.27
2022-12-13T11:15:35.644Z,26.13
2022-12-13T11:20:52.710Z,28.10
2022-12-13T11:26:00.803Z,30.90
2022-12-13T11:31:16.568Z,26.63
2022-12-13T11:36:30.907Z,27.17
2022-12-13T11:41:39.669Z,24.50
2022-12-13T11:46:49.222Z,26.65
2022-12-13T11:51:58.243Z,29.38
2022-12-13T11:57:08.190Z,25.58
2022-12-13T12:02:30.980Z,31.05
2022-12-13T12:07:58.444Z,29.33
2022-12-13T12:13:11.646Z,32.70
2022-12-13T12:18:17.939Z,28.70
2022-12-13T12:23:35.488Z,29.55
2022-12-13T12:29:04.676Z,27.00
2022-12-13T12:34:19.130Z,29.50
2022-12-13T12:39:44.571Z,37.75
2022-12-13T12:45:05.290Z,31.33
2022-12-13T12:50:33.831Z,40.33
2022-12-13T12:55:49.331Z,39.67
2022-12-13T13:01:11.128Z,31.27
2022-12-13T13:06:22.065Z,31.45
2022-12-13T13:11:27.452Z,34.17
2022-12-13T13:16:34.137Z,36.67
2022-12-13T13:21:52.774Z,30.73
2022-12-13T13:26:57.814Z,26.85
2022-12-13T13:32:05.164Z,30.38
2022-12-13T13:37:29.194Z,30.48
2022-12-13T13:42:33.665Z,28.77
2022-12-13T13:47:42.750Z,28.80
2022-12-13T13:53:02.629Z,27.38
2022-12-13T13:58:45.927Z,27.80
2022-12-13T14:04:31.713Z,31.00
2022-12-13T14:10:04.541Z,29.95
2022-12-13T14:15:56.572Z,27.55
2022-12-13T14:21:11.442Z,25.40
2022-12-13T14:26:41.836Z,26.77
2022-12-13T14:31:48.064Z,26.15
2022-12-13T14:36:59.968Z,29.67
2022-12-13T14:42:23.807Z,26.35
2022-12-13T14:47:29.046Z,28.88
2022-12-13T14:52:40.156Z,26.88
2022-12-13T14:57:54.284Z,29.58
2022-12-13T15:02:59.884Z,26.00
2022-12-13T15:08:10.213Z,21.38
2022-12-13T15:13:29.017Z,23.15
2022-12-13T15:18:34.815Z,25.27
2022-12-13T15:23:54.019Z,24.70
2022-12-13T15:29:10.399Z,24.95
2022-12-13T15:34:29.837Z,22.27
2022-12-13T15:39:39.320Z,23.20
2022-12-13T15:44:48.305Z,28.30
2022-12-13T15:49:54.104Z,32.53
2022-12-13T15:54:59.125Z,27.38
2022-12-13T16:00:08.542Z,24.95
2022-12-13T16:05:28.089Z,19.80
2022-12-13T16:10:32.207Z,24.27
2022-12-13T16:15:51.202Z,23.17
2022-12-13T16:20:57.926Z,27.25
2022-12-13T16:26:08.512Z,25.85
2022-12-13T16:31:19.135Z,32.50
2022-12-13T16:36:23.516Z,34.80
2022-12-13T16:41:41.609Z,38.97
2022-12-13T16:47:12.561Z,35.30
2022-12-13T16:52:11.409Z,30.30
2022-12-13T16:57:15.622Z,30.38
2022-12-13T17:02:21.596Z,31.15
2022-12-13T17:07:25.532Z,29.10
2022-12-13T17:12:29.260Z,26.33
2022-12-13T17:17:34.316Z,22.92
2022-12-13T17:22:38.559Z,26.85
2022-12-13T17:27:42.907Z,31.20
2022-12-13T17:32:48.180Z,26.52
2022-12-13T17:37:52.779Z,26.50
2022-12-13T17:42:56.628Z,22.88
2022-12-13T17:48:01.744Z,24.85
2022-12-13T17:53:05.567Z,24.98
2022-12-13T17:58:09.319Z,37.47
2022-12-13T18:03:14.342Z,28.65
2022-12-13T18:08:18.546Z,31.20
2022-12-13T18:13:22.720Z,22.10
2022-12-13T18:18:28.159Z,25.88
2022-12-13T18:23:32.066Z,27.27
2022-12-13T18:28:35.748Z,24.15
2022-12-13T18:33:47.209Z,26.00
2022-12-13T18:38:51.624Z,23.27
2022-12-13T18:43:59.478Z,24.80
2022-12-13T18:49:06.049Z,24.83
2022-12-13T18:54:09.918Z,23.95
2022-12-13T18:59:14.087Z,21.80
2022-12-13T19:04:19.313Z,21.98
2022-12-13T19:09:23.422Z,22.52
2022-12-13T19:14:28.247Z,30.92
2022-12-13T19:19:33.541Z,37.92
2022-12-13T19:24:37.272Z,37.45
2022-12-13T19:29:41.084Z,24.88
2022-12-13T19:34:46.195Z,29.45
2022-12-13T19:39:49.980Z,24.08
2022-12-13T19:44:53.689Z,24.63
2022-12-13T19:49:58.829Z,21.13
2022-12-13T19:55:02.560Z,30.30
2022-12-13T20:00:07.411Z,22.77
2022-12-13T20:05:12.479Z,34.50
2022-12-13T20:10:16.148Z,26.67
2022-12-13T20:15:21.011Z,23.30
2022-12-13T20:20:41.025Z,25.13
2022-12-13T20:26:00.749Z,30.20
2022-12-13T20:31:08.443Z,26.13
2022-12-13T20:36:25.164Z,24.65
2022-12-13T20:41:33.704Z,33.15
2022-12-13T20:46:37.911Z,34.53
2022-12-13T20:51:43.316Z,29.90
2022-12-13T20:56:47.223Z,25.92
2022-12-13T21:01:50.969Z,21.05
2022-12-13T21:06:56.028Z,19.27
2022-12-13T21:11:59.722Z,19.15
2022-12-13T21:17:04.845Z,19.77
2022-12-13T21:22:10.043Z,22.55
2022-12-13T21:27:13.703Z,22.88
2022-12-13T21:32:17.352Z,25.60
2022-12-13T21:37:22.462Z,18.25
2022-12-13T21:42:26.241Z,26.38
2022-12-13T21:47:30.197Z,23.25
2022-12-13T21:52:35.381Z,21.38
2022-12-13T21:57:56.425Z,13.70
2022-12-13T22:03:00.208Z,21.33
2022-12-13T22:08:05.506Z,17.25
2022-12-13T22:13:09.265Z,20.33
2022-12-13T22:18:12.953Z,15.98
2022-12-13T22:23:17.994Z,15.95
2022-12-13T22:28:21.820Z,18.65
2022-12-13T22:33:25.506Z,16.98
2022-12-13T22:38:30.581Z,26.35
2022-12-13T22:43:35.916Z,21.98
2022-12-13T22:48:40.730Z,22.05
2022-12-13T22:53:47.022Z,20.70
2022-12-13T22:58:55.226Z,18.30
2022-12-13T23:03:58.999Z,17.00
2022-12-13T23:09:06.540Z,17.15
2022-12-13T23:14:11.851Z,17.95
2022-12-13T23:19:41.032Z,18.10
2022-12-13T23:24:42.168Z,15.18
2022-12-13T23:29:45.841Z,23.35
2022-12-13T23:34:49.472Z,15.88
2022-12-13T23:39:54.819Z,15.75
2022-12-13T23:44:58.722Z,12.07
2022-12-13T23:50:02.382Z,16.25
2022-12-13T23:55:08.395Z,19.90
